createdAt,value
2018-06-29T00:02:08.118Z,17.07
2018-06-29T00:04:43.492Z,17.11
2018-06-29T00:07:19.006Z,17.08
2018-06-29T00:09:54.542Z,17.15
2018-06-29T00:12:30.158Z,17.14
2018-06-29T00:15:05.657Z,17.11
2018-06-29T00:17:41.038Z,17.13
2018-06-29T00:20:16.306Z,17.08
2018-06-29T00:22:51.692Z,17.11
2018-06-29T00:25:27.136Z,17.14
2018-06-29T00:28:02.538Z,17.16
2018-06-29T00:30:38.010Z,17.14
2018-06-29T00:33:13.288Z,17.12
2018-06-29T00:35:48.482Z,17.18
2018-06-29T00:38:23.961Z,17.16
2018-06-29T00:40:59.494Z,17.16
2018-06-29T00:43:34.865Z,17.21
2018-06-29T00:46:10.435Z,17.23
2018-06-29T00:48:45.702Z,17.24
2018-06-29T00:51:21.124Z,17.28
2018-06-29T00:53:56.629Z,17.25
2018-06-29T00:56:32.096Z,17.29
2018-06-29T00:59:07.501Z,17.37
2018-06-29T01:01:43.031Z,17.34
2018-06-29T01:04:18.381Z,17.40
2018-06-29T01:06:53.809Z,17.38
2018-06-29T01:09:29.447Z,17.46
2018-06-29T01:12:04.799Z,17.38
2018-06-29T01:14:40.268Z,17.39
2018-06-29T01:17:15.795Z,17.42
2018-06-29T01:19:51.351Z,17.41
2018-06-29T01:22:26.945Z,17.37
2018-06-29T01:25:02.433Z,17.36
2018-06-29T01:27:37.884Z,17.30
2018-06-29T01:30:13.511Z,17.28
2018-06-29T01:32:48.911Z,17.26
2018-06-29T01:35:24.126Z,17.23
2018-06-29T01:37:59.903Z,17.24
2018-06-29T01:40:35.344Z,17.24
2018-06-29T01:43:10.877Z,17.24
2018-06-29T01:45:46.353Z,17.29
2018-06-29T01:48:21.882Z,17.31
2018-06-29T01:50:57.247Z,17.29
2018-06-29T01:53:32.459Z,17.30
2018-06-29T01:56:08.050Z,17.30
2018-06-29T01:58:43.294Z,17.36
2018-06-29T02:01:18.843Z,17.37
2018-06-29T02:03:54.302Z,17.36
2018-06-29T02:06:29.648Z,17.41
2018-06-29T02:09:07.649Z,17.40
2018-06-29T02:11:43.080Z,17.39
2018-06-29T02:14:18.625Z,17.36
2018-06-29T02:16:54.222Z,17.31
2018-06-29T02:19:29.798Z,17.26
2018-06-29T02:22:05.394Z,17.27
2018-06-29T02:24:40.959Z,17.22
2018-06-29T02:27:16.284Z,17.16
2018-06-29T02:29:51.658Z,17.21
2018-06-29T02:32:27.166Z,17.19
2018-06-29T02:35:02.527Z,17.11
2018-06-29T02:37:38.034Z,16.98
2018-06-29T02:40:13.651Z,16.93
2018-06-29T02:42:49.103Z,16.83
2018-06-29T02:45:24.639Z,16.70
2018-06-29T02:48:00.284Z,16.69
2018-06-29T02:50:36.282Z,16.58
2018-06-29T02:53:11.890Z,16.66
2018-06-29T02:58:49.521Z,16.68
2018-06-29T03:01:25.011Z,16.69
2018-06-29T03:04:00.796Z,16.68
2018-06-29T03:06:36.362Z,16.73
2018-06-29T03:09:11.984Z,16.73
2018-06-29T03:11:47.432Z,16.70
2018-06-29T03:14:22.976Z,16.71
2018-06-29T03:16:58.558Z,16.74
2018-06-29T03:19:33.954Z,16.78
2018-06-29T03:22:09.270Z,16.82
2018-06-29T03:24:44.510Z,16.83
2018-06-29T03:27:19.849Z,16.83
2018-06-29T03:29:55.241Z,16.76
2018-06-29T03:32:30.694Z,16.75
2018-06-29T03:35:06.412Z,16.66
2018-06-29T03:37:42.093Z,16.70
2018-06-29T03:40:17.925Z,16.74
2018-06-29T03:42:53.315Z,16.84
2018-06-29T03:45:28.691Z,16.90
2018-06-29T03:48:04.054Z,16.87
2018-06-29T03:50:39.612Z,16.91
2018-06-29T03:53:15.055Z,16.91
2018-06-29T03:55:50.541Z,16.92
2018-06-29T03:58:25.977Z,16.94
2018-06-29T04:01:01.376Z,16.94
2018-06-29T04:03:37.769Z,17.04
2018-06-29T04:06:13.327Z,17.09
2018-06-29T04:08:48.745Z,17.10
2018-06-29T04:11:24.293Z,17.12
2018-06-29T04:13:59.888Z,17.09
2018-06-29T04:16:36.247Z,17.08
2018-06-29T04:19:11.879Z,17.06
2018-06-29T04:21:47.293Z,17.05
2018-06-29T04:24:22.937Z,17.00
2018-06-29T04:26:58.430Z,17.00
2018-06-29T04:29:33.955Z,17.04
2018-06-29T04:32:09.642Z,17.04
2018-06-29T04:34:45.073Z,17.09
2018-06-29T04:37:20.691Z,17.16
2018-06-29T04:39:56.326Z,17.23
2018-06-29T04:42:32.399Z,17.36
2018-06-29T04:45:08.809Z,17.51
2018-06-29T04:47:44.346Z,17.51
2018-06-29T04:50:19.693Z,17.45
2018-06-29T04:52:55.218Z,17.51
2018-06-29T04:55:30.800Z,17.52
2018-06-29T04:58:06.239Z,17.51
2018-06-29T05:00:41.521Z,17.53
2018-06-29T05:03:17.229Z,17.62
2018-06-29T05:05:53.030Z,17.62
2018-06-29T05:08:28.394Z,17.69
2018-06-29T05:11:04.923Z,17.74
2018-06-29T05:13:40.728Z,17.75
2018-06-29T05:16:16.304Z,17.75
2018-06-29T05:18:51.934Z,17.76
2018-06-29T05:21:27.262Z,17.85
2018-06-29T05:24:03.094Z,17.90
2018-06-29T05:26:38.404Z,17.93
2018-06-29T05:29:13.956Z,17.97
2018-06-29T05:31:49.793Z,18.02
2018-06-29T05:34:25.375Z,18.14
2018-06-29T05:37:09.487Z,18.38
2018-06-29T05:39:45.375Z,18.41
2018-06-29T05:42:20.610Z,18.46
2018-06-29T05:44:56.262Z,18.45
2018-06-29T05:47:31.947Z,18.50
2018-06-29T05:50:08.297Z,18.36
2018-06-29T05:52:43.959Z,18.24
2018-06-29T05:55:19.757Z,18.37
2018-06-29T05:57:55.543Z,18.42
2018-06-29T06:00:31.186Z,18.60
2018-06-29T06:03:07.339Z,18.82
2018-06-29T06:05:43.161Z,19.14
2018-06-29T06:08:19.201Z,19.51
2018-06-29T06:10:54.940Z,19.68
2018-06-29T06:13:36.465Z,19.82
2018-06-29T06:16:12.476Z,19.90
2018-06-29T06:18:48.135Z,20.00
2018-06-29T06:21:23.865Z,20.14
2018-06-29T06:23:59.869Z,20.09
2018-06-29T06:26:35.833Z,20.00
2018-06-29T06:29:11.467Z,19.80
2018-06-29T06:31:47.275Z,19.63
2018-06-29T06:34:23.179Z,19.75
2018-06-29T06:36:58.971Z,20.10
2018-06-29T06:39:34.935Z,20.33
2018-06-29T06:42:11.035Z,20.80
2018-06-29T06:44:46.727Z,21.02
2018-06-29T06:47:22.800Z,21.02
2018-06-29T06:49:58.163Z,21.53
2018-06-29T06:52:34.207Z,21.79
2018-06-29T06:55:09.825Z,21.55
2018-06-29T06:57:46.363Z,21.61
2018-06-29T07:00:22.417Z,21.92
2018-06-29T07:02:58.553Z,22.31
2018-06-29T07:05:35.181Z,22.25
2018-06-29T07:08:12.249Z,22.12
2018-06-29T07:10:48.999Z,22.07
2018-06-29T07:13:24.853Z,21.93
2018-06-29T07:16:01.774Z,21.68
2018-06-29T07:18:38.763Z,21.55
2018-06-29T07:21:14.329Z,21.54
2018-06-29T07:23:50.383Z,21.43
2018-06-29T07:26:28.185Z,21.66
2018-06-29T07:29:03.949Z,21.67
2018-06-29T07:31:39.765Z,21.65
2018-06-29T07:34:16.323Z,21.85
2018-06-29T07:36:53.110Z,22.32
2018-06-29T07:39:29.168Z,22.94
2018-06-29T07:42:05.026Z,23.77
2018-06-29T07:44:42.078Z,23.99
2018-06-29T07:47:18.988Z,24.18
2018-06-29T07:50:00.458Z,24.07
2018-06-29T07:52:36.569Z,23.60
2018-06-29T07:55:12.838Z,23.20
2018-06-29T07:57:53.582Z,23.06
2018-06-29T08:00:31.730Z,23.36
2018-06-29T08:03:07.426Z,23.43
2018-06-29T08:05:43.158Z,23.40
2018-06-29T08:08:19.154Z,23.70
2018-06-29T08:10:55.174Z,23.55
2018-06-29T08:13:33.914Z,23.50
2018-06-29T08:16:10.721Z,23.29
2018-06-29T08:18:49.870Z,23.40
2018-06-29T08:21:27.661Z,23.37
2018-06-29T08:24:10.346Z,23.45
2018-06-29T08:26:49.954Z,23.30
2018-06-29T08:29:31.697Z,23.39
2018-06-29T08:32:11.307Z,23.99
2018-06-29T08:34:52.739Z,24.22
2018-06-29T08:37:39.469Z,24.33
2018-06-29T08:40:58.785Z,24.42
2018-06-29T08:51:29.467Z,24.88
2018-06-29T08:54:05.258Z,24.89
2018-06-29T08:56:42.187Z,25.22
2018-06-29T08:59:18.801Z,25.84
2018-06-29T09:01:55.753Z,25.85
2018-06-29T09:04:33.771Z,26.17
2018-06-29T09:07:09.619Z,26.93
2018-06-29T09:09:45.967Z,27.45
2018-06-29T09:12:22.545Z,27.90
2018-06-29T09:14:59.007Z,28.87
2018-06-29T09:17:36.243Z,28.89
2018-06-29T09:20:12.171Z,28.91
2018-06-29T09:22:49.577Z,29.09
2018-06-29T09:25:25.257Z,28.48
2018-06-29T09:28:02.295Z,29.02
2018-06-29T09:30:38.063Z,30.76
2018-06-29T09:33:14.081Z,31.54
2018-06-29T09:35:49.785Z,32.27
2018-06-29T09:38:25.605Z,32.16
2018-06-29T09:41:02.395Z,32.11
2018-06-29T09:43:38.393Z,32.47
2018-06-29T09:46:15.398Z,31.84
2018-06-29T09:48:52.891Z,31.07
2018-06-29T09:51:28.635Z,32.26
2018-06-29T09:54:04.330Z,32.72
2018-06-29T09:56:40.327Z,32.25
2018-06-29T09:59:17.438Z,33.48
2018-06-29T10:01:56.995Z,34.61
2018-06-29T10:04:32.554Z,35.64
2018-06-29T10:07:08.632Z,36.26
2018-06-29T10:09:58.131Z,36.82
2018-06-29T10:12:34.731Z,37.64
2018-06-29T10:15:10.007Z,36.10
2018-06-29T10:17:46.341Z,36.03
2018-06-29T10:20:23.167Z,36.93
2018-06-29T10:23:01.023Z,35.94
2018-06-29T10:25:37.958Z,35.93
2018-06-29T10:28:14.177Z,34.73
2018-06-29T10:30:49.945Z,34.74
2018-06-29T10:33:25.628Z,35.68
2018-06-29T10:36:01.036Z,36.38
2018-06-29T10:38:37.087Z,37.54
2018-06-29T10:41:15.185Z,36.95
2018-06-29T10:43:50.528Z,35.83
2018-06-29T10:46:26.203Z,32.78
2018-06-29T10:49:01.913Z,31.62
2018-06-29T10:51:37.503Z,31.40
2018-06-29T10:54:12.957Z,30.70
2018-06-29T10:56:48.559Z,31.95
2018-06-29T10:59:24.554Z,34.51
2018-06-29T11:02:06.057Z,34.84
2018-06-29T11:04:41.729Z,32.77
2018-06-29T11:07:17.407Z,31.63
2018-06-29T11:09:53.078Z,31.81
2018-06-29T11:12:46.245Z,30.78
2018-06-29T11:15:21.775Z,31.13
2018-06-29T11:17:57.479Z,34.53
2018-06-29T11:23:34.861Z,34.23
2018-06-29T11:26:10.387Z,33.19
2018-06-29T11:28:46.011Z,35.50
2018-06-29T11:31:21.752Z,32.99
2018-06-29T11:33:57.551Z,32.27
2018-06-29T11:36:33.403Z,31.42
2018-06-29T11:39:13.018Z,32.59
2018-06-29T11:41:48.720Z,32.89
2018-06-29T11:44:27.515Z,32.46
2018-06-29T11:47:03.113Z,31.55
2018-06-29T11:49:39.096Z,31.76
2018-06-29T11:52:14.773Z,31.06
2018-06-29T11:54:54.340Z,35.05
2018-06-29T11:57:29.868Z,38.84
2018-06-29T12:00:07.027Z,36.10
2018-06-29T12:02:42.959Z,35.14
2018-06-29T12:05:18.798Z,34.03
2018-06-29T12:07:54.640Z,32.86
2018-06-29T12:10:30.620Z,34.17
2018-06-29T12:13:06.797Z,32.36
2018-06-29T12:15:43.131Z,32.00
2018-06-29T12:18:19.077Z,31.54
2018-06-29T12:20:54.676Z,31.06
2018-06-29T12:23:30.497Z,30.23
2018-06-29T12:26:06.408Z,30.20
2018-06-29T12:28:42.498Z,30.20
2018-06-29T12:31:17.971Z,30.45
2018-06-29T12:33:53.642Z,30.33
2018-06-29T12:36:29.792Z,29.67
2018-06-29T12:39:10.193Z,29.55
2018-06-29T12:41:46.948Z,30.05
2018-06-29T12:44:22.856Z,30.10
2018-06-29T12:46:58.884Z,29.35
2018-06-29T12:49:34.841Z,29.55
2018-06-29T12:52:10.340Z,29.57
2018-06-29T12:54:46.121Z,29.77
2018-06-29T12:57:22.728Z,30.24
2018-06-29T12:59:58.809Z,30.71
2018-06-29T13:02:34.556Z,31.73
2018-06-29T13:05:10.070Z,32.08
2018-06-29T13:07:46.037Z,32.53
2018-06-29T13:10:21.580Z,32.65
2018-06-29T13:13:00.818Z,33.45
2018-06-29T13:15:36.673Z,34.73
2018-06-29T13:18:12.539Z,35.19
2018-06-29T13:20:52.811Z,35.58
2018-06-29T13:23:33.581Z,34.15
2018-06-29T13:26:09.962Z,35.21
2018-06-29T13:28:46.294Z,35.13
2018-06-29T13:31:23.001Z,35.45
2018-06-29T13:33:59.125Z,34.44
2018-06-29T13:36:35.085Z,33.64
2018-06-29T13:39:14.282Z,33.29
2018-06-29T13:41:49.959Z,33.79
2018-06-29T13:44:25.935Z,34.43
2018-06-29T13:47:01.671Z,35.47
2018-06-29T13:49:37.313Z,38.19
2018-06-29T13:52:15.512Z,38.79
2018-06-29T13:54:54.662Z,38.83
2018-06-29T13:57:33.774Z,38.96
2018-06-29T14:00:09.820Z,36.44
2018-06-29T14:02:46.125Z,34.59
2018-06-29T14:05:21.801Z,33.58
2018-06-29T14:07:57.183Z,37.87
2018-06-29T14:10:33.071Z,42.23
2018-06-29T14:13:10.445Z,44.81
2018-06-29T14:15:46.995Z,45.77
2018-06-29T14:18:22.637Z,42.51
2018-06-29T14:21:00.201Z,41.33
2018-06-29T14:23:36.093Z,39.38
2018-06-29T14:26:12.189Z,37.32
2018-06-29T14:28:48.329Z,36.69
2018-06-29T14:31:25.596Z,39.11
2018-06-29T14:34:04.328Z,42.76
2018-06-29T14:36:43.273Z,41.36
2018-06-29T14:39:42.891Z,41.11
2018-06-29T14:45:28.859Z,42.74
2018-06-29T14:48:04.464Z,44.75
2018-06-29T14:50:40.352Z,44.74
2018-06-29T14:53:15.835Z,43.27
2018-06-29T14:55:51.521Z,40.95
2018-06-29T14:58:27.611Z,37.43
2018-06-29T15:01:02.943Z,34.19
2018-06-29T15:03:38.726Z,37.02
2018-06-29T15:06:14.495Z,41.91
2018-06-29T15:08:50.076Z,44.84
2018-06-29T15:11:34.080Z,40.96
2018-06-29T15:14:10.082Z,41.05
2018-06-29T15:16:45.701Z,40.83
2018-06-29T15:19:27.386Z,39.27
2018-06-29T15:25:13.159Z,43.02
2018-06-29T15:27:50.946Z,42.62
2018-06-29T15:30:28.233Z,44.40
2018-06-29T15:33:04.934Z,45.26
2018-06-29T15:35:40.620Z,43.78
2018-06-29T15:38:17.335Z,42.65
2018-06-29T15:40:52.842Z,41.51
2018-06-29T15:43:28.184Z,41.73
2018-06-29T15:46:03.742Z,40.28
2018-06-29T15:48:39.375Z,41.41
2018-06-29T15:51:14.776Z,42.64
2018-06-29T15:53:51.057Z,39.74
2018-06-29T15:56:26.709Z,38.47
2018-06-29T15:59:02.118Z,41.04
2018-06-29T16:01:37.669Z,39.56
2018-06-29T16:04:13.185Z,40.72
2018-06-29T16:06:49.277Z,41.15
2018-06-29T16:09:25.930Z,42.11
2018-06-29T16:12:01.365Z,40.01
2018-06-29T16:14:36.996Z,40.84
2018-06-29T16:17:13.463Z,37.38
2018-06-29T16:19:48.982Z,36.85
2018-06-29T16:22:36.793Z,38.62
2018-06-29T16:25:14.184Z,39.03
2018-06-29T16:27:52.495Z,38.91
2018-06-29T16:30:36.420Z,39.75
2018-06-29T16:33:16.521Z,39.33
2018-06-29T16:35:54.238Z,38.82
2018-06-29T16:38:30.706Z,38.49
2018-06-29T16:41:07.301Z,39.07
2018-06-29T16:43:45.120Z,39.70
2018-06-29T16:46:22.020Z,38.47
2018-06-29T16:48:59.571Z,38.36
2018-06-29T16:51:39.108Z,38.99
2018-06-29T16:54:16.370Z,38.56
2018-06-29T16:56:52.402Z,36.85
2018-06-29T16:59:30.796Z,37.67
2018-06-29T17:02:06.670Z,36.54
2018-06-29T17:04:42.237Z,36.87
2018-06-29T17:07:17.800Z,35.43
2018-06-29T17:09:55.066Z,35.60
2018-06-29T17:12:30.744Z,34.67
2018-06-29T17:15:06.629Z,34.01
2018-06-29T17:17:42.220Z,32.10
2018-06-29T17:20:19.492Z,30.50
2018-06-29T17:22:55.136Z,30.25
2018-06-29T17:25:31.482Z,29.90
2018-06-29T17:28:07.505Z,29.60
2018-06-29T17:30:44.896Z,29.73
2018-06-29T17:33:32.047Z,29.86
2018-06-29T17:36:08.458Z,29.87
2018-06-29T17:38:44.954Z,29.90
2018-06-29T17:41:21.222Z,29.79
2018-06-29T17:43:56.827Z,29.70
2018-06-29T17:46:32.562Z,29.54
2018-06-29T17:49:08.233Z,29.32
2018-06-29T17:51:43.862Z,29.31
2018-06-29T17:54:19.560Z,29.21
2018-06-29T17:56:55.266Z,29.12
2018-06-29T17:59:30.969Z,28.83
2018-06-29T18:02:12.856Z,28.75
2018-06-29T18:04:51.143Z,28.78
2018-06-29T18:07:28.838Z,28.81
2018-06-29T18:10:16.106Z,28.53
2018-06-29T18:15:34.907Z,28.32
2018-06-29T18:18:12.690Z,28.23
2018-06-29T18:20:55.294Z,28.12
2018-06-29T18:23:31.540Z,27.98
2018-06-29T18:26:08.604Z,27.81
2018-06-29T18:28:46.952Z,27.77
2018-06-29T18:31:23.234Z,27.63
2018-06-29T18:33:59.200Z,27.53
2018-06-29T18:36:34.932Z,27.33
2018-06-29T18:39:13.250Z,27.21
2018-06-29T18:41:48.757Z,27.11
2018-06-29T18:44:24.422Z,26.90
2018-06-29T18:47:00.022Z,26.76
2018-06-29T18:49:36.202Z,26.63
2018-06-29T18:52:11.505Z,26.40
2018-06-29T18:54:46.775Z,26.26
2018-06-29T18:57:22.777Z,26.11
2018-06-29T18:59:59.772Z,25.90
2018-06-29T19:02:35.443Z,25.78
2018-06-29T19:05:11.132Z,25.54
2018-06-29T19:07:46.591Z,25.43
2018-06-29T19:10:22.242Z,25.18
2018-06-29T19:12:58.714Z,24.96
2018-06-29T19:15:34.975Z,24.81
2018-06-29T19:18:10.667Z,24.56
2018-06-29T19:20:46.261Z,24.41
2018-06-29T19:23:21.756Z,24.22
2018-06-29T19:25:57.783Z,24.04
2018-06-29T19:28:33.240Z,23.79
2018-06-29T19:31:08.931Z,23.77
2018-06-29T19:33:44.307Z,23.61
2018-06-29T19:36:19.669Z,23.64
2018-06-29T19:38:55.362Z,23.73
2018-06-29T19:41:30.731Z,23.56
2018-06-29T19:44:06.172Z,23.30
2018-06-29T19:46:41.547Z,23.23
2018-06-29T19:49:17.131Z,23.24
2018-06-29T19:51:52.642Z,23.57
2018-06-29T19:54:28.074Z,23.63
2018-06-29T19:57:03.547Z,23.69
2018-06-29T19:59:40.582Z,23.59
2018-06-29T20:02:15.946Z,23.47
2018-06-29T20:04:52.174Z,23.34
2018-06-29T20:07:28.007Z,23.09
2018-06-29T20:10:03.879Z,22.82
2018-06-29T20:12:39.976Z,22.57
2018-06-29T20:15:17.038Z,22.40
2018-06-29T20:17:52.714Z,22.18
2018-06-29T20:20:29.100Z,22.07
2018-06-29T20:23:10.032Z,21.98
2018-06-29T20:25:47.837Z,21.86
2018-06-29T20:28:23.726Z,21.72
2018-06-29T20:31:00.258Z,21.55
2018-06-29T20:33:37.129Z,21.43
2018-06-29T20:36:13.092Z,21.26
2018-06-29T20:38:49.563Z,21.13
2018-06-29T20:41:26.539Z,21.03
2018-06-29T20:44:02.314Z,20.98
2018-06-29T20:46:37.869Z,20.86
2018-06-29T20:49:14.198Z,20.81
2018-06-29T20:51:50.004Z,20.68
2018-06-29T20:54:25.730Z,20.63
2018-06-29T20:57:04.593Z,20.67
2018-06-29T20:59:40.720Z,20.80
2018-06-29T21:02:16.906Z,20.67
2018-06-29T21:04:52.561Z,20.50
2018-06-29T21:07:28.365Z,20.46
2018-06-29T21:10:04.045Z,20.50
2018-06-29T21:12:39.769Z,20.70
2018-06-29T21:15:15.362Z,20.50
2018-06-29T21:17:50.961Z,20.36
2018-06-29T21:20:26.196Z,20.35
2018-06-29T21:23:01.596Z,20.12
2018-06-29T21:25:37.009Z,19.95
2018-06-29T21:28:12.536Z,19.83
2018-06-29T21:30:48.101Z,19.73
2018-06-29T21:33:23.696Z,19.81
2018-06-29T21:38:43.518Z,19.65
2018-06-29T21:41:19.424Z,19.46
2018-06-29T21:43:55.018Z,19.39
2018-06-29T21:46:30.502Z,19.35
2018-06-29T21:49:12.897Z,19.15
2018-06-29T21:51:50.777Z,19.07
2018-06-29T21:54:27.171Z,18.96
2018-06-29T21:57:10.172Z,18.92
2018-06-29T21:59:46.971Z,18.89
2018-06-29T22:02:24.233Z,18.73
2018-06-29T22:05:04.383Z,18.72
2018-06-29T22:07:40.253Z,18.53
2018-06-29T22:10:15.892Z,18.39
2018-06-29T22:12:51.623Z,18.30
2018-06-29T22:15:27.502Z,18.17
2018-06-29T22:18:03.473Z,18.08
2018-06-29T22:20:39.235Z,18.13
2018-06-29T22:23:14.994Z,18.20
2018-06-29T22:25:50.371Z,18.17
2018-06-29T22:28:26.042Z,17.96
2018-06-29T22:31:01.836Z,17.89
2018-06-29T22:33:37.537Z,17.74
2018-06-29T22:36:13.397Z,17.68
2018-06-29T22:38:49.053Z,17.68
2018-06-29T22:41:24.711Z,17.61
2018-06-29T22:44:00.778Z,17.58
2018-06-29T22:46:46.203Z,17.50
2018-06-29T22:49:21.751Z,17.35
2018-06-29T22:51:57.324Z,17.34
2018-06-29T22:54:40.511Z,17.28
2018-06-29T22:57:16.059Z,17.22
2018-06-29T22:59:51.691Z,17.14
2018-06-29T23:02:27.341Z,17.12
2018-06-29T23:05:05.260Z,17.05
2018-06-29T23:07:49.995Z,17.04
2018-06-29T23:10:31.045Z,17.03
2018-06-29T23:13:13.123Z,16.95
2018-06-29T23:15:51.307Z,16.77
2018-06-29T23:18:27.374Z,16.69
2018-06-29T23:21:05.323Z,16.65
2018-06-29T23:23:44.171Z,16.87
2018-06-29T23:26:20.638Z,16.81
2018-06-29T23:28:56.241Z,16.70
2018-06-29T23:31:32.241Z,16.58
2018-06-29T23:34:13.244Z,16.44
2018-06-29T23:36:59.766Z,16.37
2018-06-29T23:39:38.730Z,16.46
2018-06-29T23:42:14.651Z,16.26
2018-06-29T23:44:50.350Z,16.30
2018-06-29T23:47:31.044Z,16.16
2018-06-29T23:50:06.494Z,16.18
2018-06-29T23:52:41.836Z,16.09
2018-06-29T23:55:17.460Z,16.24
2018-06-29T23:57:53.014Z,16.19
